createdAt,value
2018-01-04T00:00:12.628Z,979.87
2018-01-04T00:01:11.931Z,979.81
2018-01-04T00:02:11.930Z,979.85
2018-01-04T00:03:11.913Z,979.86
2018-01-04T00:04:11.913Z,979.87
2018-01-04T00:05:12.100Z,979.91
2018-01-04T00:06:11.881Z,979.79
2018-01-04T00:07:11.887Z,979.78
2018-01-04T00:08:11.868Z,979.79
2018-01-04T00:09:11.883Z,979.75
2018-01-04T00:10:12.486Z,979.81
2018-01-04T00:11:11.850Z,979.69
2018-01-04T00:12:11.845Z,979.73
2018-01-04T00:13:11.836Z,979.75
2018-01-04T00:14:11.841Z,979.77
2018-01-04T00:15:12.523Z,979.77
2018-01-04T00:16:11.831Z,979.78
2018-01-04T00:17:11.821Z,979.79
2018-01-04T00:18:11.804Z,979.71
2018-01-04T00:19:11.987Z,979.74
2018-01-04T00:20:12.336Z,979.72
2018-01-04T00:21:11.797Z,979.71
2018-01-04T00:22:11.780Z,979.72
2018-01-04T00:23:11.773Z,979.69
2018-01-04T00:24:11.767Z,979.66
2018-01-04T00:25:12.104Z,979.62
2018-01-04T00:26:11.765Z,979.63
2018-01-04T00:27:11.758Z,979.64
2018-01-04T00:28:11.753Z,979.64
2018-01-04T00:29:11.745Z,979.65
2018-01-04T00:30:12.368Z,979.66
2018-01-04T00:31:11.733Z,979.67
2018-01-04T00:32:11.715Z,979.62
2018-01-04T00:33:11.725Z,979.67
2018-01-04T00:34:11.707Z,979.65
2018-01-04T00:35:12.247Z,979.67
2018-01-04T00:36:11.688Z,979.66
2018-01-04T00:37:11.680Z,979.74
2018-01-04T00:38:11.689Z,979.78
2018-01-04T00:39:11.669Z,979.75
2018-01-04T00:40:12.305Z,979.77
2018-01-04T00:41:11.656Z,979.82
2018-01-04T00:42:11.649Z,979.89
2018-01-04T00:43:11.644Z,979.92
2018-01-04T00:44:11.637Z,979.87
2018-01-04T00:45:12.228Z,979.99
2018-01-04T00:46:11.635Z,979.99
2018-01-04T00:47:11.617Z,979.98
2018-01-04T00:48:11.615Z,979.95
2018-01-04T00:49:11.604Z,979.93
2018-01-04T00:50:12.169Z,979.88
2018-01-04T00:51:11.593Z,979.88
2018-01-04T00:52:11.583Z,979.89
2018-01-04T00:53:11.580Z,979.81
2018-01-04T00:54:11.575Z,979.75
2018-01-04T00:55:12.140Z,979.82
2018-01-04T00:56:11.558Z,979.75
2018-01-04T00:57:11.553Z,979.77
2018-01-04T00:58:11.546Z,979.78
2018-01-04T00:59:11.538Z,979.76
2018-01-04T01:00:12.017Z,979.74
2018-01-04T01:01:11.527Z,979.77
2018-01-04T01:02:11.520Z,979.77
2018-01-04T01:03:11.520Z,979.81
2018-01-04T01:04:11.509Z,979.81
2018-01-04T01:05:12.047Z,979.81
2018-01-04T01:06:11.497Z,979.81
2018-01-04T01:07:11.490Z,979.82
2018-01-04T01:08:11.483Z,979.79
2018-01-04T01:09:11.476Z,979.78
2018-01-04T01:10:12.055Z,979.79
2018-01-04T01:11:11.462Z,979.81
2018-01-04T01:12:11.458Z,979.79
2018-01-04T01:13:11.452Z,979.81
2018-01-04T01:14:11.444Z,979.84
2018-01-04T01:15:11.939Z,979.82
2018-01-04T01:16:11.430Z,979.85
2018-01-04T01:17:11.422Z,979.87
2018-01-04T01:18:11.418Z,979.92
2018-01-04T01:19:11.413Z,979.93
2018-01-04T01:20:11.904Z,979.97
2018-01-04T01:21:11.395Z,980.07
2018-01-04T01:22:11.389Z,980.12
2018-01-04T01:23:11.383Z,980.16
2018-01-04T01:24:11.375Z,980.14
2018-01-04T01:25:12.130Z,980.15
2018-01-04T01:26:11.432Z,980.18
2018-01-04T01:27:11.355Z,980.17
2018-01-04T01:28:11.355Z,980.11
2018-01-04T01:29:11.341Z,980.1
2018-01-04T01:30:11.983Z,980.03
2018-01-04T01:31:11.332Z,980.02
2018-01-04T01:32:11.627Z,980.04
2018-01-04T01:33:11.316Z,980.05
2018-01-04T01:34:11.309Z,980.03
2018-01-04T01:35:11.773Z,980.04
2018-01-04T01:36:11.293Z,980.03
2018-01-04T01:37:11.598Z,980.02
2018-01-04T01:38:11.282Z,980.05
2018-01-04T01:39:11.276Z,979.99
2018-01-04T01:40:11.778Z,980.06
2018-01-04T01:41:11.264Z,980.03
2018-01-04T01:42:12.055Z,979.98
2018-01-04T01:43:11.246Z,979.94
2018-01-04T01:44:11.241Z,979.93
2018-01-04T01:45:11.714Z,979.87
2018-01-04T01:46:11.228Z,979.81
2018-01-04T01:47:11.584Z,979.85
2018-01-04T01:48:11.227Z,979.83
2018-01-04T01:49:11.208Z,979.88
2018-01-04T01:50:11.720Z,979.83
2018-01-04T01:51:11.192Z,979.79
2018-01-04T01:52:11.586Z,979.76
2018-01-04T01:53:11.180Z,979.73
2018-01-04T01:54:11.172Z,979.7
2018-01-04T01:55:11.699Z,979.65
2018-01-04T01:56:11.172Z,979.59
2018-01-04T01:57:12.753Z,979.49
2018-01-04T01:58:11.144Z,979.51
2018-01-04T01:59:11.137Z,979.46
2018-01-04T02:00:11.649Z,979.49
2018-01-04T02:01:11.123Z,979.44
2018-01-04T02:02:11.118Z,979.46
2018-01-04T02:03:11.110Z,979.45
2018-01-04T02:04:11.105Z,979.41
2018-01-04T02:05:11.436Z,979.46
2018-01-04T02:06:11.092Z,979.5
2018-01-04T02:07:11.083Z,979.48
2018-01-04T02:08:11.078Z,979.55
2018-01-04T02:09:11.072Z,979.57
2018-01-04T02:10:11.646Z,979.53
2018-01-04T02:11:11.054Z,979.59
2018-01-04T02:12:11.047Z,979.48
2018-01-04T02:13:11.065Z,979.44
2018-01-04T02:14:11.033Z,979.37
2018-01-04T02:15:11.505Z,979.4
2018-01-04T02:16:11.020Z,979.37
2018-01-04T02:17:11.018Z,979.34
2018-01-04T02:18:11.007Z,979.31
2018-01-04T02:19:10.999Z,979.39
2018-01-04T02:20:11.534Z,979.34
2018-01-04T02:21:10.985Z,979.37
2018-01-04T02:22:11.251Z,979.34
2018-01-04T02:23:10.980Z,979.25
2018-01-04T02:24:10.964Z,979.33
2018-01-04T02:25:11.452Z,979.29
2018-01-04T02:26:10.951Z,979.26
2018-01-04T02:27:10.945Z,979.21
2018-01-04T02:28:10.936Z,979.28
2018-01-04T02:29:10.929Z,979.28
2018-01-04T02:30:11.486Z,979.28
2018-01-04T02:31:10.915Z,979.36
2018-01-04T02:32:10.909Z,979.34
2018-01-04T02:33:10.902Z,979.34
2018-01-04T02:34:10.894Z,979.37
2018-01-04T02:35:11.384Z,979.29
2018-01-04T02:36:10.882Z,979.34
2018-01-04T02:37:10.883Z,979.24
2018-01-04T02:38:10.868Z,979.21
2018-01-04T02:39:10.861Z,979.29
2018-01-04T02:40:11.351Z,979.2
2018-01-04T02:41:10.848Z,979.29
2018-01-04T02:42:10.840Z,979.26
2018-01-04T02:43:10.836Z,979.15
2018-01-04T02:44:10.826Z,979.22
2018-01-04T02:45:11.290Z,979.16
2018-01-04T02:46:10.813Z,979.19
2018-01-04T02:47:10.807Z,979.08
2018-01-04T02:48:10.800Z,979.13
2018-01-04T02:49:10.792Z,979.11
2018-01-04T02:50:11.192Z,979.06
2018-01-04T02:51:10.784Z,979.04
2018-01-04T02:52:10.771Z,978.99
2018-01-04T02:53:10.764Z,979.01
2018-01-04T02:54:10.764Z,978.99
2018-01-04T02:55:11.310Z,979.04
2018-01-04T02:56:10.746Z,979.01
2018-01-04T02:57:10.738Z,979.06
2018-01-04T02:58:10.733Z,979.07
2018-01-04T02:59:10.725Z,979.12
2018-01-04T03:00:11.181Z,979.15
2018-01-04T03:01:10.711Z,979.14
2018-01-04T03:02:10.705Z,979.22
2018-01-04T03:03:10.707Z,979.12
2018-01-04T03:04:10.690Z,979.19
2018-01-04T03:05:11.144Z,979.13
2018-01-04T03:06:10.678Z,979.17
2018-01-04T03:07:10.671Z,979.13
2018-01-04T03:08:10.668Z,979.16
2018-01-04T03:09:10.659Z,979.19
2018-01-04T03:10:11.251Z,979.2
2018-01-04T03:11:10.647Z,979.25
2018-01-04T03:12:10.640Z,979.3
2018-01-04T03:13:10.633Z,979.29
2018-01-04T03:14:10.628Z,979.38
2018-01-04T03:15:11.140Z,979.44
2018-01-04T03:16:10.614Z,979.42
2018-01-04T03:17:10.611Z,979.48
2018-01-04T03:18:10.601Z,979.48
2018-01-04T03:19:10.594Z,979.44
2018-01-04T03:20:11.070Z,979.47
2018-01-04T03:21:10.584Z,979.5
2018-01-04T03:22:10.576Z,979.51
2018-01-04T03:23:10.570Z,979.51
2018-01-04T03:24:10.564Z,979.5
2018-01-04T03:25:10.996Z,979.52
2018-01-04T03:26:10.551Z,979.48
2018-01-04T03:27:10.544Z,979.48
2018-01-04T03:28:10.541Z,979.45
2018-01-04T03:29:10.529Z,979.41
2018-01-04T03:30:11.030Z,979.43
2018-01-04T03:31:10.520Z,979.45
2018-01-04T03:32:10.524Z,979.4
2018-01-04T03:33:10.516Z,979.37
2018-01-04T03:34:10.500Z,979.34
2018-01-04T03:35:10.992Z,979.37
2018-01-04T03:36:10.488Z,979.39
2018-01-04T03:37:10.480Z,979.34
2018-01-04T03:38:10.480Z,979.33
2018-01-04T03:39:10.471Z,979.32
2018-01-04T03:40:10.970Z,979.32
2018-01-04T03:41:10.465Z,979.34
2018-01-04T03:42:10.449Z,979.35
2018-01-04T03:43:10.448Z,979.4
2018-01-04T03:44:10.435Z,979.3
2018-01-04T03:45:10.941Z,979.35
2018-01-04T03:46:10.425Z,979.39
2018-01-04T03:47:10.418Z,979.43
2018-01-04T03:48:10.413Z,979.32
2018-01-04T03:49:10.408Z,979.25
2018-01-04T03:50:10.716Z,979.25
2018-01-04T03:51:10.389Z,979.23
2018-01-04T03:52:10.382Z,979.19
2018-01-04T03:53:10.375Z,979.18
2018-01-04T03:54:10.371Z,979.11
2018-01-04T03:55:10.887Z,979.06
2018-01-04T03:56:10.355Z,979.06
2018-01-04T03:57:10.349Z,979.03
2018-01-04T03:58:10.343Z,979.04
2018-01-04T03:59:10.335Z,979.04
2018-01-04T04:00:10.800Z,978.97
2018-01-04T04:01:10.322Z,978.95
2018-01-04T04:02:10.316Z,978.95
2018-01-04T04:03:10.311Z,978.97
2018-01-04T04:04:10.302Z,979
2018-01-04T04:05:10.588Z,978.91
2018-01-04T04:06:10.289Z,978.98
2018-01-04T04:07:10.282Z,978.93
2018-01-04T04:08:10.275Z,978.88
2018-01-04T04:09:10.268Z,978.87
2018-01-04T04:10:10.768Z,978.88
2018-01-04T04:11:10.255Z,978.88
2018-01-04T04:12:10.249Z,978.93
2018-01-04T04:13:10.242Z,978.96
2018-01-04T04:14:10.234Z,978.97
2018-01-04T04:15:10.705Z,979.02
2018-01-04T04:16:10.221Z,978.98
2018-01-04T04:17:10.214Z,978.93
2018-01-04T04:18:10.207Z,979.02
2018-01-04T04:19:10.201Z,979
2018-01-04T04:20:10.852Z,978.96
2018-01-04T04:21:10.187Z,979.03
2018-01-04T04:22:10.181Z,979.03
2018-01-04T04:23:10.177Z,979.05
2018-01-04T04:24:10.166Z,979.04
2018-01-04T04:25:10.622Z,979.02
2018-01-04T04:26:10.159Z,979.03
2018-01-04T04:27:10.147Z,979.01
2018-01-04T04:28:10.140Z,978.98
2018-01-04T04:29:10.133Z,979.03
2018-01-04T04:30:10.696Z,979.04
2018-01-04T04:31:10.126Z,979.04
2018-01-04T04:32:10.116Z,979.15
2018-01-04T04:33:10.111Z,979.16
2018-01-04T04:34:10.102Z,979.15
2018-01-04T04:35:10.731Z,979.23
2018-01-04T04:36:10.089Z,979.18
2018-01-04T04:37:10.081Z,979.18
2018-01-04T04:38:10.073Z,979.23
2018-01-04T04:39:10.071Z,979.2
2018-01-04T04:40:10.573Z,979.29
2018-01-04T04:41:10.055Z,979.3
2018-01-04T04:42:10.047Z,979.34
2018-01-04T04:43:10.041Z,979.29
2018-01-04T04:44:10.037Z,979.28
2018-01-04T04:45:10.510Z,979.28
2018-01-04T04:46:10.022Z,979.25
2018-01-04T04:47:10.024Z,979.28
2018-01-04T04:48:10.008Z,979.3
2018-01-04T04:49:10.001Z,979.3
2018-01-04T04:50:10.446Z,979.22
2018-01-04T04:51:09.992Z,979.17
2018-01-04T04:52:09.982Z,979.14
2018-01-04T04:53:09.973Z,979.14
2018-01-04T04:54:09.968Z,979.1
2018-01-04T04:55:10.280Z,979
2018-01-04T04:56:09.956Z,979
2018-01-04T04:57:09.947Z,978.95
2018-01-04T04:58:09.941Z,978.9
2018-01-04T04:59:09.940Z,978.89
2018-01-04T05:00:10.169Z,978.96
2018-01-04T05:01:09.921Z,978.83
2018-01-04T05:02:09.915Z,978.91
2018-01-04T05:03:09.908Z,978.92
2018-01-04T05:04:09.900Z,978.87
2018-01-04T05:05:10.233Z,978.86
2018-01-04T05:06:09.889Z,978.86
2018-01-04T05:07:09.882Z,978.8
2018-01-04T05:08:09.874Z,978.68
2018-01-04T05:09:09.866Z,978.7
2018-01-04T05:10:10.267Z,978.73
2018-01-04T05:11:09.855Z,978.71
2018-01-04T05:12:09.855Z,978.75
2018-01-04T05:13:09.853Z,978.74
2018-01-04T05:14:09.832Z,978.75
2018-01-04T05:15:10.184Z,978.78
2018-01-04T05:16:09.819Z,978.81
2018-01-04T05:17:09.810Z,978.83
2018-01-04T05:18:09.803Z,978.89
2018-01-04T05:19:09.808Z,978.83
2018-01-04T05:20:10.220Z,978.87
2018-01-04T05:21:09.798Z,978.88
2018-01-04T05:22:09.780Z,978.88
2018-01-04T05:23:09.767Z,978.85
2018-01-04T05:24:09.766Z,978.93
2018-01-04T05:25:10.166Z,978.87
2018-01-04T05:26:09.747Z,978.93
2018-01-04T05:27:09.747Z,978.91
2018-01-04T05:28:09.732Z,978.88
2018-01-04T05:29:09.725Z,978.96
2018-01-04T05:30:10.153Z,979
2018-01-04T05:31:09.712Z,979.06
2018-01-04T05:32:09.704Z,979.04
2018-01-04T05:33:09.696Z,979.1
2018-01-04T05:34:09.695Z,979.08
2018-01-04T05:35:10.118Z,979.11
2018-01-04T05:36:09.681Z,979.07
2018-01-04T05:37:09.672Z,979.07
2018-01-04T05:38:09.665Z,979.05
2018-01-04T05:39:09.655Z,979.13
2018-01-04T05:40:09.992Z,979.08
2018-01-04T05:41:09.642Z,979.01
2018-01-04T05:42:09.635Z,979.06
2018-01-04T05:43:09.629Z,978.94
2018-01-04T05:44:09.630Z,978.99
2018-01-04T05:45:10.225Z,979.01
2018-01-04T05:46:09.607Z,979.04
2018-01-04T05:47:09.601Z,978.99
2018-01-04T05:48:09.596Z,978.94
2018-01-04T05:49:09.588Z,979.01
2018-01-04T05:50:10.090Z,979
2018-01-04T05:51:09.574Z,979.02
2018-01-04T05:52:09.571Z,978.99
2018-01-04T05:53:09.561Z,979.01
2018-01-04T05:54:09.555Z,978.94
2018-01-04T05:55:09.921Z,978.94
2018-01-04T05:56:09.550Z,978.93
2018-01-04T05:57:09.534Z,978.87
2018-01-04T05:58:09.529Z,978.9
2018-01-04T05:59:09.530Z,978.89
2018-01-04T06:00:10.017Z,978.89
2018-01-04T06:01:09.533Z,978.87
2018-01-04T06:02:09.507Z,978.81
2018-01-04T06:03:09.496Z,978.85
2018-01-04T06:04:09.489Z,978.86
2018-01-04T06:05:09.820Z,978.83
2018-01-04T06:06:09.476Z,978.86
2018-01-04T06:07:09.487Z,978.9
2018-01-04T06:08:09.464Z,978.82
2018-01-04T06:09:09.466Z,978.86
2018-01-04T06:10:09.842Z,978.86
2018-01-04T06:11:09.453Z,978.77
2018-01-04T06:12:09.449Z,978.73
2018-01-04T06:13:09.435Z,978.75
2018-01-04T06:14:09.423Z,978.76
2018-01-04T06:15:09.779Z,978.82
2018-01-04T06:16:09.411Z,978.8
2018-01-04T06:17:09.403Z,978.78
2018-01-04T06:18:09.401Z,978.78
2018-01-04T06:19:09.391Z,978.72
2018-01-04T06:20:09.765Z,978.72
2018-01-04T06:21:09.386Z,978.65
2018-01-04T06:22:09.379Z,978.72
2018-01-04T06:23:09.365Z,978.77
2018-01-04T06:24:09.358Z,978.74
2018-01-04T06:25:09.603Z,978.78
2018-01-04T06:26:09.343Z,978.8
2018-01-04T06:27:09.339Z,978.81
2018-01-04T06:28:09.331Z,978.79
2018-01-04T06:29:09.324Z,978.74
2018-01-04T06:30:09.710Z,978.68
2018-01-04T06:31:09.313Z,978.74
2018-01-04T06:32:09.322Z,978.7
2018-01-04T06:33:09.299Z,978.61
2018-01-04T06:34:09.292Z,978.68
2018-01-04T06:35:09.678Z,978.68
2018-01-04T06:36:09.278Z,978.71
2018-01-04T06:37:09.273Z,978.74
2018-01-04T06:38:09.266Z,978.77
2018-01-04T06:39:09.260Z,978.8
2018-01-04T06:40:09.588Z,978.72
2018-01-04T06:41:09.248Z,978.68
2018-01-04T06:42:09.241Z,978.67
2018-01-04T06:43:09.236Z,978.72
2018-01-04T06:44:09.228Z,978.7
2018-01-04T06:45:09.611Z,978.69
2018-01-04T06:46:09.215Z,978.69
2018-01-04T06:47:09.226Z,978.67
2018-01-04T06:48:09.205Z,978.7
2018-01-04T06:49:09.238Z,978.64
2018-01-04T06:50:09.536Z,978.62
2018-01-04T06:51:09.219Z,978.63
2018-01-04T06:52:09.178Z,978.6
2018-01-04T06:53:09.174Z,978.62
2018-01-04T06:54:09.175Z,978.64
2018-01-04T06:55:09.462Z,978.65
2018-01-04T06:56:09.155Z,978.62
2018-01-04T06:57:09.147Z,978.53
2018-01-04T06:58:09.147Z,978.49
2018-01-04T06:59:09.135Z,978.47
2018-01-04T07:00:09.545Z,978.43
2018-01-04T07:01:09.121Z,978.37
2018-01-04T07:02:09.115Z,978.34
2018-01-04T07:03:09.111Z,978.42
2018-01-04T07:04:09.103Z,978.41
2018-01-04T07:05:09.534Z,978.36
2018-01-04T07:06:09.092Z,978.34
2018-01-04T07:07:09.086Z,978.32
2018-01-04T07:08:09.077Z,978.29
2018-01-04T07:09:09.071Z,978.26
2018-01-04T07:10:09.456Z,978.15
2018-01-04T07:11:09.062Z,978.15
2018-01-04T07:12:09.054Z,978.14
2018-01-04T07:13:09.047Z,978.09
2018-01-04T07:14:09.042Z,978.09
2018-01-04T07:15:09.390Z,978.07
2018-01-04T07:16:09.028Z,978.05
2018-01-04T07:17:09.023Z,978.1
2018-01-04T07:18:09.015Z,978.14
2018-01-04T07:19:09.010Z,978.16
2018-01-04T07:20:09.387Z,978.08
2018-01-04T07:21:08.997Z,978.04
2018-01-04T07:22:08.992Z,977.98
2018-01-04T07:23:08.990Z,977.96
2018-01-04T07:24:08.978Z,977.93
2018-01-04T07:25:09.336Z,977.91
2018-01-04T07:26:08.971Z,977.97
2018-01-04T07:27:08.958Z,977.94
2018-01-04T07:28:08.957Z,977.86
2018-01-04T07:29:08.950Z,977.93
2018-01-04T07:30:09.218Z,977.96
2018-01-04T07:31:08.940Z,978.01
2018-01-04T07:32:08.930Z,978
2018-01-04T07:33:08.936Z,978.02
2018-01-04T07:34:08.919Z,977.95
2018-01-04T07:35:09.099Z,977.97
2018-01-04T07:36:08.907Z,977.96
2018-01-04T07:37:08.898Z,977.9
2018-01-04T07:38:08.892Z,977.88
2018-01-04T07:39:08.886Z,977.86
2018-01-04T07:40:09.136Z,977.83
2018-01-04T07:41:08.875Z,977.8
2018-01-04T07:42:08.867Z,977.75
2018-01-04T07:43:08.861Z,977.8
2018-01-04T07:44:08.854Z,977.85
2018-01-04T07:45:09.154Z,977.87
2018-01-04T07:46:08.842Z,977.87
2018-01-04T07:47:08.840Z,977.82
2018-01-04T07:48:08.830Z,977.89
2018-01-04T07:49:08.826Z,977.93
2018-01-04T07:50:09.106Z,977.94
2018-01-04T07:51:08.811Z,978.05
2018-01-04T07:52:08.804Z,978.07
2018-01-04T07:53:08.800Z,978.04
2018-01-04T07:54:08.793Z,977.97
2018-01-04T07:55:09.148Z,977.79
2018-01-04T07:56:08.783Z,977.77
2018-01-04T07:57:08.780Z,977.77
2018-01-04T07:58:08.764Z,977.83
2018-01-04T07:59:08.760Z,977.82
2018-01-04T08:00:08.965Z,977.71
2018-01-04T08:01:08.746Z,977.71
2018-01-04T08:02:08.747Z,977.77
2018-01-04T08:03:08.737Z,977.8
2018-01-04T08:04:08.739Z,977.65
2018-01-04T08:05:09.098Z,977.62
2018-01-04T08:06:08.724Z,977.7
2018-01-04T08:07:08.708Z,977.69
2018-01-04T08:08:08.706Z,977.68
2018-01-04T08:09:08.697Z,977.63
2018-01-04T08:10:08.885Z,977.58
2018-01-04T08:11:08.685Z,977.56
2018-01-04T08:12:08.679Z,977.52
2018-01-04T08:13:08.676Z,977.46
2018-01-04T08:14:08.666Z,977.42
2018-01-04T08:15:08.972Z,977.39
2018-01-04T08:16:08.656Z,977.44
2018-01-04T08:17:08.649Z,977.38
2018-01-04T08:18:08.644Z,977.36
2018-01-04T08:19:08.647Z,977.29
2018-01-04T08:20:08.949Z,977.25
2018-01-04T08:21:08.626Z,977.25
2018-01-04T08:22:08.618Z,977.32
2018-01-04T08:23:08.614Z,977.42
2018-01-04T08:24:08.607Z,977.48
2018-01-04T08:25:08.986Z,977.52
2018-01-04T08:26:08.598Z,977.47
2018-01-04T08:27:08.595Z,977.46
2018-01-04T08:28:08.583Z,977.4
2018-01-04T08:29:08.577Z,977.35
2018-01-04T08:30:08.780Z,977.33
2018-01-04T08:31:08.565Z,977.41
2018-01-04T08:32:08.560Z,977.43
2018-01-04T08:33:08.559Z,977.4
2018-01-04T08:34:08.551Z,977.4
2018-01-04T08:35:08.870Z,977.44
2018-01-04T08:36:08.535Z,977.42
2018-01-04T08:37:08.530Z,977.41
2018-01-04T08:38:08.524Z,977.49
2018-01-04T08:39:08.521Z,977.48
2018-01-04T08:40:08.768Z,977.47
2018-01-04T08:41:08.505Z,977.46
2018-01-04T08:42:08.508Z,977.46
2018-01-04T08:43:08.495Z,977.49
2018-01-04T08:44:08.494Z,977.54
2018-01-04T08:45:08.797Z,977.57
2018-01-04T08:46:08.475Z,977.49
2018-01-04T08:47:08.477Z,977.53
2018-01-04T08:48:08.465Z,977.46
2018-01-04T08:49:08.458Z,977.47
2018-01-04T08:50:08.672Z,977.47
2018-01-04T08:51:08.458Z,977.54
2018-01-04T08:52:08.450Z,977.45
2018-01-04T08:53:08.435Z,977.47
2018-01-04T08:54:08.429Z,977.47
2018-01-04T08:55:08.637Z,977.46
2018-01-04T08:56:08.416Z,977.43
2018-01-04T08:57:08.410Z,977.46
2018-01-04T08:58:08.406Z,977.56
2018-01-04T08:59:08.404Z,977.53
2018-01-04T09:00:08.597Z,977.47
2018-01-04T09:01:08.388Z,977.41
2018-01-04T09:02:08.393Z,977.43
2018-01-04T09:03:08.377Z,977.36
2018-01-04T09:04:08.370Z,977.42
2018-01-04T09:05:08.606Z,977.37
2018-01-04T09:06:08.369Z,977.41
2018-01-04T09:07:08.353Z,977.41
2018-01-04T09:08:08.346Z,977.36
2018-01-04T09:09:08.342Z,977.35
2018-01-04T09:10:08.485Z,977.31
2018-01-04T09:11:08.329Z,977.29
2018-01-04T09:12:08.323Z,977.32
2018-01-04T09:13:08.320Z,977.37
2018-01-04T09:14:08.311Z,977.34
2018-01-04T09:15:08.633Z,977.34
2018-01-04T09:16:08.309Z,977.33
2018-01-04T09:17:08.293Z,977.28
2018-01-04T09:18:08.289Z,977.24
2018-01-04T09:19:08.283Z,977.23
2018-01-04T09:20:08.790Z,977.26
2018-01-04T09:21:08.271Z,977.24
2018-01-04T09:22:08.266Z,977.18
2018-01-04T09:23:08.259Z,977.2
2018-01-04T09:24:08.252Z,977.19
2018-01-04T09:25:08.697Z,977.12
2018-01-04T09:26:08.245Z,977.08
2018-01-04T09:27:08.236Z,977.1
2018-01-04T09:28:08.230Z,977.07
2018-01-04T09:29:08.227Z,977.09
2018-01-04T09:30:08.616Z,977.11
2018-01-04T09:31:08.216Z,977.1
2018-01-04T09:32:08.207Z,977.13
2018-01-04T09:33:08.212Z,977.12
2018-01-04T09:34:08.199Z,977.08
2018-01-04T09:35:08.334Z,977.12
2018-01-04T09:36:08.189Z,977.09
2018-01-04T09:37:08.178Z,977.03
2018-01-04T09:38:08.173Z,977.03
2018-01-04T09:39:08.168Z,977.06
2018-01-04T09:40:08.375Z,977.06
2018-01-04T09:41:08.156Z,976.99
2018-01-04T09:42:08.155Z,977.04
2018-01-04T09:43:08.155Z,977.03
2018-01-04T09:44:08.139Z,977
2018-01-04T09:45:08.547Z,976.98
2018-01-04T09:46:08.127Z,977.01
2018-01-04T09:47:08.121Z,976.94
2018-01-04T09:48:08.116Z,976.93
2018-01-04T09:49:08.111Z,976.91
2018-01-04T09:50:08.450Z,976.87
2018-01-04T09:51:08.100Z,976.8
2018-01-04T09:52:08.094Z,976.84
2018-01-04T09:53:08.088Z,976.8
2018-01-04T09:54:08.081Z,976.75
2018-01-04T09:55:08.313Z,976.77
2018-01-04T09:56:08.077Z,976.68
2018-01-04T09:57:08.065Z,976.7
2018-01-04T09:58:08.060Z,976.65
2018-01-04T09:59:08.055Z,976.56
2018-01-04T10:00:08.156Z,976.57
2018-01-04T10:01:08.045Z,976.53
2018-01-04T10:02:08.037Z,976.48
2018-01-04T10:03:08.037Z,976.43
2018-01-04T10:04:08.030Z,976.4
2018-01-04T10:05:08.057Z,976.34
2018-01-04T10:06:08.015Z,976.33
2018-01-04T10:07:08.008Z,976.3
2018-01-04T10:08:08.005Z,976.26
2018-01-04T10:09:07.998Z,976.19
2018-01-04T10:10:07.995Z,976.22
2018-01-04T10:11:07.989Z,976.21
2018-01-04T10:12:07.983Z,976.17
2018-01-04T10:13:07.981Z,976.16
2018-01-04T10:14:07.973Z,976.13
2018-01-04T10:15:08.216Z,976.1
2018-01-04T10:16:07.958Z,976.03
2018-01-04T10:17:07.952Z,976
2018-01-04T10:18:07.950Z,975.98
2018-01-04T10:19:07.941Z,975.91
2018-01-04T10:20:07.937Z,975.9
2018-01-04T10:21:07.931Z,975.9
2018-01-04T10:22:07.924Z,975.88
2018-01-04T10:52:31.420Z,975.27
2018-01-04T10:53:31.400Z,975.26
2018-01-04T10:54:31.391Z,975.23
2018-01-04T10:55:31.428Z,975.17
2018-01-04T10:56:31.365Z,975.16
2018-01-04T10:57:31.362Z,975.18
2018-01-04T10:58:31.346Z,975.12
2018-01-04T10:59:31.341Z,975.12
2018-01-04T11:00:31.342Z,975.09
2018-01-04T11:01:31.321Z,975.11
2018-01-04T11:02:31.313Z,975.12
2018-01-04T11:03:31.306Z,975.14
2018-01-04T11:04:31.298Z,975.15
2018-01-04T11:05:31.292Z,975.15
2018-01-04T11:06:31.289Z,975.12
2018-01-04T11:07:33.029Z,975.1
2018-01-04T11:08:31.271Z,975.08
2018-01-04T11:09:31.264Z,975.02
2018-01-04T11:10:31.257Z,975.02
2018-01-04T11:11:31.253Z,974.95
2018-01-04T11:12:31.247Z,974.95
2018-01-04T11:13:31.238Z,975.02
2018-01-04T11:14:31.235Z,975.01
2018-01-04T11:15:31.226Z,974.95
2018-01-04T11:16:31.226Z,974.94
2018-01-04T11:17:31.223Z,974.89
2018-01-04T11:18:31.208Z,974.9
2018-01-04T11:19:31.202Z,974.83
2018-01-04T11:20:31.198Z,974.86
2018-01-04T11:21:31.191Z,974.83
2018-01-04T11:22:31.185Z,974.89
2018-01-04T11:23:31.180Z,974.82
2018-01-04T11:24:31.174Z,974.82
2018-01-04T11:25:31.170Z,974.74
2018-01-04T11:26:31.171Z,974.69
2018-01-04T11:27:31.159Z,974.7
2018-01-04T11:28:31.159Z,974.7
2018-01-04T11:29:31.147Z,974.62
2018-01-04T11:30:31.142Z,974.64
2018-01-04T11:31:31.137Z,974.59
2018-01-04T11:32:31.131Z,974.57
2018-01-04T11:33:31.128Z,974.59
2018-01-04T11:34:31.126Z,974.52
2018-01-04T11:35:31.116Z,974.58
2018-01-04T11:36:31.111Z,974.53
2018-01-04T11:37:31.106Z,974.5
2018-01-04T11:38:31.104Z,974.49
2018-01-04T11:39:31.097Z,974.49
2018-01-04T11:40:31.093Z,974.53
2018-01-04T11:41:31.088Z,974.44
2018-01-04T11:42:31.083Z,974.39
2018-01-04T11:43:31.074Z,974.38
2018-01-04T11:44:31.070Z,974.4
2018-01-04T11:45:31.064Z,974.39
2018-01-04T11:46:31.059Z,974.37
2018-01-04T11:47:31.055Z,974.38
2018-01-04T11:48:31.051Z,974.37
2018-01-04T11:49:31.043Z,974.3
2018-01-04T11:50:31.038Z,974.33
2018-01-04T11:51:31.065Z,974.31
2018-01-04T11:52:31.028Z,974.28
2018-01-04T11:53:31.024Z,974.19
2018-01-04T11:54:31.018Z,974.17
2018-01-04T11:55:31.024Z,974.18
2018-01-04T11:56:31.014Z,974.14
2018-01-04T11:57:31.001Z,974.19
2018-01-04T11:58:30.998Z,974.1
2018-01-04T11:59:30.991Z,974.12
2018-01-04T12:00:30.987Z,974.13
2018-01-04T12:01:30.983Z,974.1
2018-01-04T12:02:30.978Z,974.07
2018-01-04T12:03:30.974Z,974.1
2018-01-04T12:04:30.966Z,974.06
2018-01-04T12:05:30.960Z,974.07
2018-01-04T12:06:30.956Z,974.08
2018-01-04T12:07:30.954Z,974.11
2018-01-04T12:08:30.988Z,974.1
2018-01-04T12:09:30.941Z,974.05
2018-01-04T12:10:30.935Z,973.97
2018-01-04T12:11:30.934Z,973.95
2018-01-04T12:12:30.925Z,973.98
2018-01-04T12:13:30.920Z,973.94
2018-01-04T12:14:30.917Z,973.89
2018-01-04T12:15:30.911Z,973.84
2018-01-04T12:16:30.905Z,973.87
2018-01-04T12:17:30.901Z,973.82
2018-01-04T12:18:30.898Z,973.76
2018-01-04T12:19:30.895Z,973.76
2018-01-04T12:20:30.886Z,973.79
2018-01-04T12:21:30.881Z,973.75
2018-01-04T12:22:30.875Z,973.68
2018-01-04T12:23:30.869Z,973.62
2018-01-04T12:24:30.866Z,973.56
2018-01-04T12:25:30.861Z,973.57
2018-01-04T12:26:30.857Z,973.56
2018-01-04T12:27:30.853Z,973.61
2018-01-04T12:28:30.847Z,973.56
2018-01-04T12:29:30.842Z,973.55
2018-01-04T12:30:30.838Z,973.62
2018-01-04T12:31:30.832Z,973.54
2018-01-04T12:32:30.827Z,973.53
2018-01-04T12:33:30.825Z,973.46
2018-01-04T12:34:30.816Z,973.55
2018-01-04T12:35:30.814Z,973.49
2018-01-04T12:36:30.841Z,973.48
2018-01-04T12:37:30.802Z,973.44
2018-01-04T12:38:30.797Z,973.33
2018-01-04T12:39:30.791Z,973.26
2018-01-04T12:40:30.786Z,973.19
2018-01-04T12:41:30.781Z,973.12
2018-01-04T12:42:30.776Z,973.15
2018-01-04T12:43:30.788Z,973.2
2018-01-04T12:44:30.767Z,973.08
2018-01-04T12:45:30.765Z,972.97
2018-01-04T12:46:30.771Z,972.98
2018-01-04T12:47:30.751Z,972.98
2018-01-04T12:48:30.744Z,973.01
2018-01-04T12:49:30.740Z,972.97
2018-01-04T12:50:30.735Z,972.96
2018-01-04T12:51:30.731Z,972.97
2018-01-04T12:52:30.724Z,972.86
2018-01-04T12:53:30.718Z,972.83
2018-01-04T12:54:30.716Z,972.82
2018-01-04T12:55:30.710Z,972.89
2018-01-04T12:56:30.707Z,972.87
2018-01-04T12:57:30.700Z,972.92
2018-01-04T12:58:30.694Z,973.01
2018-01-04T12:59:30.687Z,972.91
2018-01-04T13:00:30.682Z,972.79